Aviation Digital Data Service (ADDS)

Output produced by METARs form (1252 UTC 20 September 2017)
found at http://aviationweather.gov/adds/metars/
 
KCRG 201121Z 2012/2112 VRB03KT P6SM SCT060 SCT250 
     FM201500 27004KT P6SM FEW030 SCT250 
     FM201800 09008KT P6SM SCT035 BKN250 
     FM210300 VRB03KT P6SM SCT250